sensor_id;sensor_type;location;lat;lon;timestamp;P1;durP1;ratioP1;P2;durP2;ratioP2
36833;SDS011;48003;52.084;5.224;2022-08-01T00:00:22;6.3;;;4.0;;
36833;SDS011;48003;52.084;5.224;2022-08-01T00:02:10;4.3;;;3.4;;
36833;SDS011;48003;52.084;5.224;2022-08-01T00:05:45;6.1;;;4.0;;
36833;SDS011;48003;52.084;5.224;2022-08-01T00:07:31;4.91;;;3.9;;
36833;SDS011;48003;52.084;5.224;2022-08-01T00:09:17;6.3;;;4.61;;
36833;SDS011;48003;52.084;5.224;2022-08-01T00:11:04;7.2;;;5.11;;
36833;SDS011;48003;52.084;5.224;2022-08-01T00:12:51;8.31;;;5.6;;
36833;SDS011;48003;52.084;5.224;2022-08-01T00:16:24;9.5;;;6.3;;
36833;SDS011;48003;52.084;5.224;2022-08-01T00:18:11;9.31;;;6.0;;
36833;SDS011;48003;52.084;5.224;2022-08-01T00:19:57;8.31;;;6.4;;
36833;SDS011;48003;52.084;5.224;2022-08-01T00:21:44;8.4;;;6.3;;
36833;SDS011;48003;52.084;5.224;2022-08-01T00:23:32;10.1;;;6.6;;
36833;SDS011;48003;52.084;5.224;2022-08-01T00:25:18;11.0;;;6.7;;
36833;SDS011;48003;52.084;5.224;2022-08-01T00:28:50;9.4;;;6.8;;
36833;SDS011;48003;52.084;5.224;2022-08-01T00:30:37;9.71;;;7.3;;
36833;SDS011;48003;52.084;5.224;2022-08-01T00:32:23;13.0;;;6.7;;
36833;SDS011;48003;52.084;5.224;2022-08-01T00:34:10;9.5;;;6.9;;
36833;SDS011;48003;52.084;5.224;2022-08-01T00:35:57;9.81;;;6.5;;
36833;SDS011;48003;52.084;5.224;2022-08-01T00:37:44;8.81;;;6.2;;
36833;SDS011;48003;52.084;5.224;2022-08-01T00:41:19;8.6;;;5.9;;
36833;SDS011;48003;52.084;5.224;2022-08-01T00:43:05;10.5;;;7.3;;
36833;SDS011;48003;52.084;5.224;2022-08-01T00:44:51;12.2;;;8.1;;
36833;SDS011;48003;52.084;5.224;2022-08-01T00:46:37;8.2;;;6.5;;
36833;SDS011;48003;52.084;5.224;2022-08-01T00:48:23;10.1;;;7.7;;
36833;SDS011;48003;52.084;5.224;2022-08-01T00:51:58;11.4;;;7.7;;
36833;SDS011;48003;52.084;5.224;2022-08-01T00:53:45;11.5;;;8.71;;
36833;SDS011;48003;52.084;5.224;2022-08-01T00:55:31;11.5;;;8.2;;
36833;SDS011;48003;52.084;5.224;2022-08-01T00:57:18;11.1;;;8.0;;
36833;SDS011;48003;52.084;5.224;2022-08-01T00:59:05;12.5;;;8.1;;
36833;SDS011;48003;52.084;5.224;2022-08-01T01:00:53;14.5;;;8.71;;
36833;SDS011;48003;52.084;5.224;2022-08-01T01:04:25;13.8;;;9.9;;
36833;SDS011;48003;52.084;5.224;2022-08-01T01:06:15;16.2;;;9.71;;
36833;SDS011;48003;52.084;5.224;2022-08-01T01:08:13;13.3;;;10.21;;
36833;SDS011;48003;52.084;5.224;2022-08-01T01:10:09;12.4;;;10.3;;
36833;SDS011;48003;52.084;5.224;2022-08-01T01:12:02;16.2;;;10.5;;
36833;SDS011;48003;52.084;5.224;2022-08-01T01:14:00;14.6;;;10.21;;
36833;SDS011;48003;52.084;5.224;2022-08-01T01:15:55;15.4;;;10.8;;
36833;SDS011;48003;52.084;5.224;2022-08-01T01:17:46;17.0;;;11.1;;
36833;SDS011;48003;52.084;5.224;2022-08-01T01:19:44;16.61;;;11.5;;
36833;SDS011;48003;52.084;5.224;2022-08-01T01:23:39;15.2;;;10.4;;
36833;SDS011;48003;52.084;5.224;2022-08-01T01:25:40;17.61;;;10.6;;
36833;SDS011;48003;52.084;5.224;2022-08-01T01:27:41;15.4;;;10.7;;
36833;SDS011;48003;52.084;5.224;2022-08-01T01:29:38;15.2;;;11.0;;
36833;SDS011;48003;52.084;5.224;2022-08-01T01:31:28;16.3;;;10.5;;
36833;SDS011;48003;52.084;5.224;2022-08-01T01:33:19;15.7;;;11.2;;
36833;SDS011;48003;52.084;5.224;2022-08-01T01:35:10;14.5;;;10.5;;
36833;SDS011;48003;52.084;5.224;2022-08-01T01:37:08;13.7;;;10.1;;
36833;SDS011;48003;52.084;5.224;2022-08-01T01:39:06;13.2;;;9.71;;
36833;SDS011;48003;52.084;5.224;2022-08-01T01:40:53;14.7;;;10.3;;
36833;SDS011;48003;52.084;5.224;2022-08-01T01:42:42;15.5;;;10.7;;
36833;SDS011;48003;52.084;5.224;2022-08-01T01:46:18;18.0;;;12.5;;
36833;SDS011;48003;52.084;5.224;2022-08-01T01:48:10;16.5;;;11.0;;
36833;SDS011;48003;52.084;5.224;2022-08-01T01:50:00;14.5;;;10.1;;
36833;SDS011;48003;52.084;5.224;2022-08-01T01:51:50;16.8;;;11.3;;
36833;SDS011;48003;52.084;5.224;2022-08-01T01:53:38;13.7;;;9.9;;
36833;SDS011;48003;52.084;5.224;2022-08-01T01:55:27;14.8;;;10.6;;
36833;SDS011;48003;52.084;5.224;2022-08-01T01:57:16;18.61;;;11.1;;
36833;SDS011;48003;52.084;5.224;2022-08-01T02:00:51;14.2;;;10.6;;
36833;SDS011;48003;52.084;5.224;2022-08-01T02:02:41;16.61;;;11.7;;
36833;SDS011;48003;52.084;5.224;2022-08-01T02:04:28;17.0;;;10.6;;
36833;SDS011;48003;52.084;5.224;2022-08-01T02:06:18;19.61;;;11.9;;
36833;SDS011;48003;52.084;5.224;2022-08-01T02:08:05;17.3;;;11.6;;
36833;SDS011;48003;52.084;5.224;2022-08-01T02:09:53;16.0;;;11.0;;
36833;SDS011;48003;52.084;5.224;2022-08-01T02:13:30;17.2;;;11.5;;
36833;SDS011;48003;52.084;5.224;2022-08-01T02:15:17;16.2;;;10.5;;
36833;SDS011;48003;52.084;5.224;2022-08-01T02:17:06;18.41;;;11.6;;
36833;SDS011;48003;52.084;5.224;2022-08-01T02:18:57;16.7;;;10.6;;
36833;SDS011;48003;52.084;5.224;2022-08-01T02:20:44;14.9;;;10.4;;
36833;SDS011;48003;52.084;5.224;2022-08-01T02:22:33;17.2;;;10.6;;
36833;SDS011;48003;52.084;5.224;2022-08-01T02:24:30;13.8;;;9.31;;
36833;SDS011;48003;52.084;5.224;2022-08-01T02:28:13;13.2;;;9.1;;
36833;SDS011;48003;52.084;5.224;2022-08-01T02:30:05;16.2;;;9.9;;
36833;SDS011;48003;52.084;5.224;2022-08-01T02:31:55;13.3;;;8.71;;
36833;SDS011;48003;52.084;5.224;2022-08-01T02:33:43;12.6;;;8.1;;
36833;SDS011;48003;52.084;5.224;2022-08-01T02:35:35;12.8;;;8.9;;
36833;SDS011;48003;52.084;5.224;2022-08-01T02:37:27;12.7;;;8.4;;
36833;SDS011;48003;52.084;5.224;2022-08-01T02:39:19;12.8;;;8.5;;
36833;SDS011;48003;52.084;5.224;2022-08-01T02:41:09;13.7;;;8.9;;
36833;SDS011;48003;52.084;5.224;2022-08-01T02:44:49;12.6;;;8.81;;
36833;SDS011;48003;52.084;5.224;2022-08-01T02:46:38;14.8;;;9.9;;
36833;SDS011;48003;52.084;5.224;2022-08-01T02:48:29;14.2;;;9.0;;
36833;SDS011;48003;52.084;5.224;2022-08-01T02:50:19;13.0;;;8.4;;
36833;SDS011;48003;52.084;5.224;2022-08-01T02:52:09;12.0;;;8.5;;
36833;SDS011;48003;52.084;5.224;2022-08-01T02:54:01;12.1;;;8.1;;
36833;SDS011;48003;52.084;5.224;2022-08-01T02:55:51;12.2;;;8.5;;
36833;SDS011;48003;52.084;5.224;2022-08-01T02:59:29;12.1;;;8.2;;
36833;SDS011;48003;52.084;5.224;2022-08-01T03:01:19;11.3;;;7.9;;
36833;SDS011;48003;52.084;5.224;2022-08-01T03:03:08;10.3;;;7.5;;
36833;SDS011;48003;52.084;5.224;2022-08-01T03:04:57;11.0;;;7.5;;
36833;SDS011;48003;52.084;5.224;2022-08-01T03:06:46;10.0;;;7.5;;
36833;SDS011;48003;52.084;5.224;2022-08-01T03:08:33;11.3;;;8.0;;
36833;SDS011;48003;52.084;5.224;2022-08-01T03:12:14;10.1;;;7.5;;
36833;SDS011;48003;52.084;5.224;2022-08-01T03:14:12;11.2;;;8.1;;
36833;SDS011;48003;52.084;5.224;2022-08-01T03:16:00;9.21;;;7.3;;
36833;SDS011;48003;52.084;5.224;2022-08-01T03:17:51;9.4;;;7.7;;
36833;SDS011;48003;52.084;5.224;2022-08-01T03:19:40;10.21;;;7.4;;
36833;SDS011;48003;52.084;5.224;2022-08-01T03:21:30;9.31;;;7.1;;
36833;SDS011;48003;52.084;5.224;2022-08-01T03:23:19;10.4;;;7.6;;
36833;SDS011;48003;52.084;5.224;2022-08-01T03:25:08;9.6;;;7.6;;
36833;SDS011;48003;52.084;5.224;2022-08-01T03:28:44;10.9;;;7.7;;
36833;SDS011;48003;52.084;5.224;2022-08-01T03:30:33;10.3;;;8.0;;
36833;SDS011;48003;52.084;5.224;2022-08-01T03:32:22;10.1;;;8.0;;
36833;SDS011;48003;52.084;5.224;2022-08-01T03:34:10;9.9;;;7.7;;
36833;SDS011;48003;52.084;5.224;2022-08-01T03:35:58;11.1;;;7.8;;
36833;SDS011;48003;52.084;5.224;2022-08-01T03:37:48;10.8;;;8.5;;
36833;SDS011;48003;52.084;5.224;2022-08-01T03:41:34;9.5;;;7.9;;
36833;SDS011;48003;52.084;5.224;2022-08-01T03:43:29;11.3;;;8.4;;
36833;SDS011;48003;52.084;5.224;2022-08-01T03:45:25;10.9;;;8.1;;
36833;SDS011;48003;52.084;5.224;2022-08-01T03:47:13;12.3;;;8.81;;
36833;SDS011;48003;52.084;5.224;2022-08-01T03:49:05;11.2;;;9.5;;
36833;SDS011;48003;52.084;5.224;2022-08-01T03:51:08;11.4;;;8.9;;
36833;SDS011;48003;52.084;5.224;2022-08-01T03:52:57;11.1;;;8.9;;
36833;SDS011;48003;52.084;5.224;2022-08-01T03:54:47;12.6;;;9.5;;
36833;SDS011;48003;52.084;5.224;2022-08-01T04:00:18;12.2;;;9.71;;
36833;SDS011;48003;52.084;5.224;2022-08-01T04:02:05;14.5;;;10.3;;
36833;SDS011;48003;52.084;5.224;2022-08-01T04:03:53;11.3;;;9.4;;
36833;SDS011;48003;52.084;5.224;2022-08-01T04:05:40;12.9;;;9.71;;
36833;SDS011;48003;52.084;5.224;2022-08-01T04:07:28;13.3;;;10.1;;
36833;SDS011;48003;52.084;5.224;2022-08-01T04:09:16;13.9;;;10.3;;
36833;SDS011;48003;52.084;5.224;2022-08-01T04:12:51;13.6;;;10.4;;
36833;SDS011;48003;52.084;5.224;2022-08-01T04:14:38;12.8;;;10.7;;
36833;SDS011;48003;52.084;5.224;2022-08-01T04:16:24;13.6;;;11.3;;
36833;SDS011;48003;52.084;5.224;2022-08-01T04:18:11;14.6;;;10.8;;
36833;SDS011;48003;52.084;5.224;2022-08-01T04:19:57;12.4;;;10.3;;
36833;SDS011;48003;52.084;5.224;2022-08-01T04:21:44;13.9;;;11.2;;
36833;SDS011;48003;52.084;5.224;2022-08-01T04:25:21;16.7;;;11.3;;
36833;SDS011;48003;52.084;5.224;2022-08-01T04:27:13;11.4;;;9.9;;
36833;SDS011;48003;52.084;5.224;2022-08-01T04:30:59;15.6;;;11.1;;
36833;SDS011;48003;52.084;5.224;2022-08-01T04:32:47;13.2;;;10.6;;
36833;SDS011;48003;52.084;5.224;2022-08-01T04:34:35;11.0;;;9.6;;
36833;SDS011;48003;52.084;5.224;2022-08-01T04:36:25;12.4;;;9.9;;
36833;SDS011;48003;52.084;5.224;2022-08-01T04:40:10;13.3;;;10.4;;
36833;SDS011;48003;52.084;5.224;2022-08-01T04:41:58;12.1;;;9.81;;
36833;SDS011;48003;52.084;5.224;2022-08-01T04:43:46;13.6;;;10.5;;
36833;SDS011;48003;52.084;5.224;2022-08-01T04:45:33;12.6;;;9.81;;
36833;SDS011;48003;52.084;5.224;2022-08-01T04:47:21;13.5;;;10.5;;
36833;SDS011;48003;52.084;5.224;2022-08-01T04:49:09;11.3;;;9.4;;
36833;SDS011;48003;52.084;5.224;2022-08-01T04:50:56;12.7;;;9.81;;
36833;SDS011;48003;52.084;5.224;2022-08-01T04:54:30;11.3;;;9.1;;
36833;SDS011;48003;52.084;5.224;2022-08-01T04:58:06;9.9;;;8.6;;
36833;SDS011;48003;52.084;5.224;2022-08-01T04:59:56;13.3;;;9.31;;
36833;SDS011;48003;52.084;5.224;2022-08-01T05:01:47;11.3;;;8.6;;
36833;SDS011;48003;52.084;5.224;2022-08-01T05:03:34;10.0;;;8.6;;
36833;SDS011;48003;52.084;5.224;2022-08-01T05:07:08;10.9;;;7.9;;
36833;SDS011;48003;52.084;5.224;2022-08-01T05:08:56;10.3;;;8.81;;
36833;SDS011;48003;52.084;5.224;2022-08-01T05:10:42;10.4;;;7.6;;
36833;SDS011;48003;52.084;5.224;2022-08-01T05:12:28;8.4;;;6.4;;
36833;SDS011;48003;52.084;5.224;2022-08-01T05:14:15;6.8;;;6.1;;
36833;SDS011;48003;52.084;5.224;2022-08-01T05:16:03;6.9;;;5.7;;
36833;SDS011;48003;52.084;5.224;2022-08-01T05:19:37;7.0;;;6.3;;
36833;SDS011;48003;52.084;5.224;2022-08-01T05:21:25;7.4;;;5.6;;
36833;SDS011;48003;52.084;5.224;2022-08-01T05:23:12;6.9;;;5.3;;
36833;SDS011;48003;52.084;5.224;2022-08-01T05:24:59;6.5;;;5.3;;
36833;SDS011;48003;52.084;5.224;2022-08-01T05:26:45;7.0;;;5.2;;
36833;SDS011;48003;52.084;5.224;2022-08-01T05:28:31;5.8;;;5.0;;
36833;SDS011;48003;52.084;5.224;2022-08-01T05:32:04;6.8;;;5.11;;
36833;SDS011;48003;52.084;5.224;2022-08-01T05:33:51;6.9;;;5.6;;
36833;SDS011;48003;52.084;5.224;2022-08-01T05:35:37;7.3;;;5.5;;
36833;SDS011;48003;52.084;5.224;2022-08-01T05:37:24;5.7;;;5.11;;
36833;SDS011;48003;52.084;5.224;2022-08-01T05:39:10;9.6;;;5.7;;
36833;SDS011;48003;52.084;5.224;2022-08-01T05:42:43;6.5;;;4.8;;
36833;SDS011;48003;52.084;5.224;2022-08-01T05:44:30;6.0;;;5.0;;
36833;SDS011;48003;52.084;5.224;2022-08-01T05:46:17;5.11;;;3.9;;
36833;SDS011;48003;52.084;5.224;2022-08-01T05:48:04;4.3;;;3.8;;
36833;SDS011;48003;52.084;5.224;2022-08-01T05:49:50;4.61;;;3.9;;
36833;SDS011;48003;52.084;5.224;2022-08-01T05:51:36;3.9;;;3.2;;
36833;SDS011;48003;52.084;5.224;2022-08-01T05:55:09;4.2;;;2.9;;
36833;SDS011;48003;52.084;5.224;2022-08-01T05:56:59;4.3;;;3.3;;
36833;SDS011;48003;52.084;5.224;2022-08-01T05:58:46;4.0;;;3.3;;
36833;SDS011;48003;52.084;5.224;2022-08-01T06:00:33;3.3;;;2.4;;
36833;SDS011;48003;52.084;5.224;2022-08-01T06:02:20;4.2;;;2.5;;
36833;SDS011;48003;52.084;5.224;2022-08-01T06:04:06;3.1;;;2.21;;
36833;SDS011;48003;52.084;5.224;2022-08-01T06:07:39;2.5;;;1.9;;
36833;SDS011;48003;52.084;5.224;2022-08-01T06:09:26;2.4;;;2.0;;
36833;SDS011;48003;52.084;5.224;2022-08-01T06:11:12;3.5;;;1.9;;
36833;SDS011;48003;52.084;5.224;2022-08-01T06:14:49;2.8;;;2.1;;
36833;SDS011;48003;52.084;5.224;2022-08-01T06:16:35;2.31;;;2.0;;
36833;SDS011;48003;52.084;5.224;2022-08-01T06:20:09;2.8;;;2.0;;
36833;SDS011;48003;52.084;5.224;2022-08-01T06:21:56;2.1;;;1.7;;
36833;SDS011;48003;52.084;5.224;2022-08-01T06:23:42;3.5;;;1.9;;
36833;SDS011;48003;52.084;5.224;2022-08-01T06:25:28;2.9;;;1.6;;
36833;SDS011;48003;52.084;5.224;2022-08-01T06:27:16;2.9;;;2.1;;
36833;SDS011;48003;52.084;5.224;2022-08-01T06:30:49;4.3;;;2.7;;
36833;SDS011;48003;52.084;5.224;2022-08-01T06:32:36;3.6;;;2.31;;
36833;SDS011;48003;52.084;5.224;2022-08-01T06:34:22;2.6;;;1.7;;
36833;SDS011;48003;52.084;5.224;2022-08-01T06:36:09;4.1;;;2.5;;
36833;SDS011;48003;52.084;5.224;2022-08-01T06:37:55;2.31;;;1.9;;
36833;SDS011;48003;52.084;5.224;2022-08-01T06:39:42;4.3;;;2.21;;
36833;SDS011;48003;52.084;5.224;2022-08-01T06:43:15;2.4;;;2.1;;
36833;SDS011;48003;52.084;5.224;2022-08-01T06:45:02;2.4;;;1.9;;
36833;SDS011;48003;52.084;5.224;2022-08-01T06:46:49;2.7;;;1.9;;
36833;SDS011;48003;52.084;5.224;2022-08-01T06:48:39;2.1;;;1.5;;
36833;SDS011;48003;52.084;5.224;2022-08-01T06:50:25;2.4;;;1.8;;
36833;SDS011;48003;52.084;5.224;2022-08-01T06:52:11;2.9;;;2.21;;
36833;SDS011;48003;52.084;5.224;2022-08-01T06:55:44;2.7;;;1.9;;
36833;SDS011;48003;52.084;5.224;2022-08-01T06:57:30;2.0;;;1.8;;
36833;SDS011;48003;52.084;5.224;2022-08-01T06:59:17;2.4;;;2.0;;
36833;SDS011;48003;52.084;5.224;2022-08-01T07:01:05;2.6;;;2.0;;
36833;SDS011;48003;52.084;5.224;2022-08-01T07:02:53;2.7;;;1.4;;
36833;SDS011;48003;52.084;5.224;2022-08-01T07:06:29;2.5;;;1.6;;
36833;SDS011;48003;52.084;5.224;2022-08-01T07:08:15;2.7;;;1.8;;
36833;SDS011;48003;52.084;5.224;2022-08-01T07:10:03;2.0;;;1.8;;
36833;SDS011;48003;52.084;5.224;2022-08-01T07:13:39;2.5;;;1.7;;
36833;SDS011;48003;52.084;5.224;2022-08-01T07:15:26;2.6;;;2.1;;
36833;SDS011;48003;52.084;5.224;2022-08-01T07:19:00;2.6;;;2.1;;
36833;SDS011;48003;52.084;5.224;2022-08-01T07:20:46;1.9;;;1.6;;
36833;SDS011;48003;52.084;5.224;2022-08-01T07:22:32;1.8;;;1.5;;
36833;SDS011;48003;52.084;5.224;2022-08-01T07:24:19;2.0;;;1.6;;
36833;SDS011;48003;52.084;5.224;2022-08-01T07:26:06;3.6;;;2.0;;
36833;SDS011;48003;52.084;5.224;2022-08-01T07:27:52;4.3;;;2.5;;
36833;SDS011;48003;52.084;5.224;2022-08-01T07:33:11;4.61;;;2.1;;
36833;SDS011;48003;52.084;5.224;2022-08-01T07:34:58;6.2;;;2.5;;
36833;SDS011;48003;52.084;5.224;2022-08-01T07:36:45;7.8;;;2.6;;
36833;SDS011;48003;52.084;5.224;2022-08-01T07:38:32;9.71;;;2.7;;
36833;SDS011;48003;52.084;5.224;2022-08-01T07:40:19;9.5;;;2.7;;
36833;SDS011;48003;52.084;5.224;2022-08-01T07:43:53;10.3;;;3.1;;
36833;SDS011;48003;52.084;5.224;2022-08-01T07:45:39;11.4;;;3.1;;
36833;SDS011;48003;52.084;5.224;2022-08-01T07:47:27;13.7;;;3.5;;
36833;SDS011;48003;52.084;5.224;2022-08-01T07:49:13;12.9;;;3.6;;
36833;SDS011;48003;52.084;5.224;2022-08-01T07:51:00;12.9;;;3.3;;
36833;SDS011;48003;52.084;5.224;2022-08-01T07:54:33;11.0;;;3.4;;
36833;SDS011;48003;52.084;5.224;2022-08-01T07:56:20;10.21;;;3.3;;
36833;SDS011;48003;52.084;5.224;2022-08-01T07:58:06;13.0;;;3.4;;
36833;SDS011;48003;52.084;5.224;2022-08-01T07:59:53;14.8;;;3.7;;
36833;SDS011;48003;52.084;5.224;2022-08-01T08:01:41;14.7;;;3.9;;
36833;SDS011;48003;52.084;5.224;2022-08-01T08:03:27;9.9;;;3.2;;
36833;SDS011;48003;52.084;5.224;2022-08-01T08:07:01;14.3;;;3.6;;
36833;SDS011;48003;52.084;5.224;2022-08-01T08:08:48;10.4;;;3.3;;
36833;SDS011;48003;52.084;5.224;2022-08-01T08:10:34;10.4;;;3.5;;
36833;SDS011;48003;52.084;5.224;2022-08-01T08:12:20;10.5;;;3.2;;
36833;SDS011;48003;52.084;5.224;2022-08-01T08:14:07;13.2;;;3.9;;
36833;SDS011;48003;52.084;5.224;2022-08-01T08:15:53;13.8;;;3.7;;
36833;SDS011;48003;52.084;5.224;2022-08-01T08:19:26;13.3;;;3.4;;
36833;SDS011;48003;52.084;5.224;2022-08-01T08:21:12;12.9;;;3.7;;
36833;SDS011;48003;52.084;5.224;2022-08-01T08:22:58;13.3;;;4.2;;
36833;SDS011;48003;52.084;5.224;2022-08-01T08:24:45;13.3;;;4.2;;
36833;SDS011;48003;52.084;5.224;2022-08-01T08:26:32;12.2;;;3.5;;
36833;SDS011;48003;52.084;5.224;2022-08-01T08:30:07;10.8;;;3.4;;
36833;SDS011;48003;52.084;5.224;2022-08-01T08:31:54;11.4;;;4.0;;
36833;SDS011;48003;52.084;5.224;2022-08-01T08:33:42;12.6;;;3.8;;
36833;SDS011;48003;52.084;5.224;2022-08-01T08:35:28;11.3;;;3.5;;
36833;SDS011;48003;52.084;5.224;2022-08-01T08:37:17;11.7;;;3.7;;
36833;SDS011;48003;52.084;5.224;2022-08-01T08:39:04;8.31;;;3.1;;
36833;SDS011;48003;52.084;5.224;2022-08-01T08:42:39;11.4;;;3.0;;
36833;SDS011;48003;52.084;5.224;2022-08-01T08:46:12;12.5;;;3.4;;
36833;SDS011;48003;52.084;5.224;2022-08-01T08:48:00;14.4;;;3.1;;
36833;SDS011;48003;52.084;5.224;2022-08-01T08:49:49;10.6;;;2.9;;
36833;SDS011;48003;52.084;5.224;2022-08-01T08:51:37;17.5;;;9.31;;
36833;SDS011;48003;52.084;5.224;2022-08-01T08:55:15;20.0;;;7.7;;
36833;SDS011;48003;52.084;5.224;2022-08-01T08:57:03;10.7;;;3.3;;
36833;SDS011;48003;52.084;5.224;2022-08-01T08:58:51;12.4;;;3.1;;
36833;SDS011;48003;52.084;5.224;2022-08-01T09:00:38;11.0;;;2.8;;
36833;SDS011;48003;52.084;5.224;2022-08-01T09:02:25;10.21;;;3.1;;
36833;SDS011;48003;52.084;5.224;2022-08-01T09:04:11;10.3;;;2.8;;
36833;SDS011;48003;52.084;5.224;2022-08-01T09:07:46;10.8;;;2.8;;
36833;SDS011;48003;52.084;5.224;2022-08-01T09:09:33;11.7;;;3.0;;
36833;SDS011;48003;52.084;5.224;2022-08-01T09:11:19;14.7;;;2.7;;
36833;SDS011;48003;52.084;5.224;2022-08-01T09:13:08;11.5;;;2.7;;
36833;SDS011;48003;52.084;5.224;2022-08-01T09:14:56;10.5;;;2.1;;
36833;SDS011;48003;52.084;5.224;2022-08-01T09:16:44;10.4;;;2.6;;
36833;SDS011;48003;52.084;5.224;2022-08-01T09:20:22;9.21;;;2.31;;
36833;SDS011;48003;52.084;5.224;2022-08-01T09:22:09;10.8;;;2.21;;
36833;SDS011;48003;52.084;5.224;2022-08-01T09:24:03;8.4;;;2.4;;
36833;SDS011;48003;52.084;5.224;2022-08-01T09:25:51;8.9;;;2.6;;
36833;SDS011;48003;52.084;5.224;2022-08-01T09:27:39;10.3;;;2.1;;
36833;SDS011;48003;52.084;5.224;2022-08-01T09:29:26;9.81;;;2.4;;
36833;SDS011;48003;52.084;5.224;2022-08-01T09:31:17;9.31;;;2.21;;
36833;SDS011;48003;52.084;5.224;2022-08-01T09:34:51;10.8;;;2.5;;
36833;SDS011;48003;52.084;5.224;2022-08-01T09:36:46;8.2;;;2.4;;
36833;SDS011;48003;52.084;5.224;2022-08-01T09:38:41;11.7;;;2.4;;
36833;SDS011;48003;52.084;5.224;2022-08-01T09:40:43;10.0;;;2.1;;
36833;SDS011;48003;52.084;5.224;2022-08-01T09:42:30;10.1;;;2.5;;
36833;SDS011;48003;52.084;5.224;2022-08-01T09:44:17;9.6;;;2.1;;
36833;SDS011;48003;52.084;5.224;2022-08-01T09:46:04;9.1;;;2.4;;
36833;SDS011;48003;52.084;5.224;2022-08-01T09:47:55;9.5;;;2.21;;
36833;SDS011;48003;52.084;5.224;2022-08-01T09:51:30;9.21;;;2.31;;
36833;SDS011;48003;52.084;5.224;2022-08-01T09:53:20;7.2;;;2.1;;
36833;SDS011;48003;52.084;5.224;2022-08-01T09:55:07;10.3;;;2.5;;
36833;SDS011;48003;52.084;5.224;2022-08-01T09:56:57;9.6;;;3.5;;
36833;SDS011;48003;52.084;5.224;2022-08-01T09:58:55;11.2;;;2.21;;
36833;SDS011;48003;52.084;5.224;2022-08-01T10:00:42;8.31;;;2.1;;
36833;SDS011;48003;52.084;5.224;2022-08-01T10:02:45;9.81;;;2.21;;
36833;SDS011;48003;52.084;5.224;2022-08-01T10:06:19;7.3;;;2.1;;
36833;SDS011;48003;52.084;5.224;2022-08-01T10:08:07;9.6;;;2.4;;
36833;SDS011;48003;52.084;5.224;2022-08-01T10:09:53;11.6;;;2.31;;
36833;SDS011;48003;52.084;5.224;2022-08-01T10:11:40;10.7;;;2.31;;
36833;SDS011;48003;52.084;5.224;2022-08-01T10:13:30;10.5;;;2.31;;
36833;SDS011;48003;52.084;5.224;2022-08-01T10:15:16;10.1;;;2.21;;
36833;SDS011;48003;52.084;5.224;2022-08-01T10:18:54;10.8;;;2.5;;
36833;SDS011;48003;52.084;5.224;2022-08-01T10:20:42;9.4;;;2.0;;
36833;SDS011;48003;52.084;5.224;2022-08-01T10:22:31;9.6;;;2.0;;
36833;SDS011;48003;52.084;5.224;2022-08-01T10:24:18;9.31;;;2.4;;
36833;SDS011;48003;52.084;5.224;2022-08-01T10:26:06;8.6;;;2.31;;
36833;SDS011;48003;52.084;5.224;2022-08-01T10:27:56;10.7;;;2.1;;
36833;SDS011;48003;52.084;5.224;2022-08-01T10:29:46;7.2;;;2.1;;
36833;SDS011;48003;52.084;5.224;2022-08-01T10:33:26;6.2;;;2.1;;
36833;SDS011;48003;52.084;5.224;2022-08-01T10:35:17;7.0;;;1.7;;
36833;SDS011;48003;52.084;5.224;2022-08-01T10:37:04;6.5;;;1.8;;
36833;SDS011;48003;52.084;5.224;2022-08-01T10:38:53;10.5;;;2.1;;
36833;SDS011;48003;52.084;5.224;2022-08-01T10:40:41;7.5;;;2.1;;
36833;SDS011;48003;52.084;5.224;2022-08-01T10:42:29;6.9;;;2.1;;
36833;SDS011;48003;52.084;5.224;2022-08-01T10:46:03;9.31;;;1.9;;
36833;SDS011;48003;52.084;5.224;2022-08-01T10:47:53;7.9;;;1.7;;
36833;SDS011;48003;52.084;5.224;2022-08-01T10:49:47;7.1;;;1.8;;
36833;SDS011;48003;52.084;5.224;2022-08-01T10:51:39;7.5;;;1.9;;
36833;SDS011;48003;52.084;5.224;2022-08-01T10:53:27;6.6;;;1.7;;
36833;SDS011;48003;52.084;5.224;2022-08-01T10:55:14;8.0;;;1.7;;
36833;SDS011;48003;52.084;5.224;2022-08-01T10:57:00;7.0;;;1.9;;
36833;SDS011;48003;52.084;5.224;2022-08-01T11:00:33;7.4;;;1.8;;
36833;SDS011;48003;52.084;5.224;2022-08-01T11:02:25;8.71;;;2.21;;
36833;SDS011;48003;52.084;5.224;2022-08-01T11:04:14;9.71;;;2.0;;
36833;SDS011;48003;52.084;5.224;2022-08-01T11:06:03;13.6;;;2.6;;
36833;SDS011;48003;52.084;5.224;2022-08-01T11:07:52;7.3;;;2.1;;
36833;SDS011;48003;52.084;5.224;2022-08-01T11:09:40;7.3;;;1.7;;
36833;SDS011;48003;52.084;5.224;2022-08-01T11:13:16;12.6;;;4.5;;
36833;SDS011;48003;52.084;5.224;2022-08-01T11:15:47;6.0;;;1.7;;
36833;SDS011;48003;52.084;5.224;2022-08-01T11:19:21;4.41;;;1.5;;
36833;SDS011;48003;52.084;5.224;2022-08-01T11:21:09;7.8;;;1.8;;
36833;SDS011;48003;52.084;5.224;2022-08-01T11:23:15;7.2;;;2.0;;
36833;SDS011;48003;52.084;5.224;2022-08-01T11:25:02;4.7;;;1.4;;
36833;SDS011;48003;52.084;5.224;2022-08-01T11:27:13;5.9;;;1.6;;
36833;SDS011;48003;52.084;5.224;2022-08-01T11:29:10;7.2;;;1.8;;
36833;SDS011;48003;52.084;5.224;2022-08-01T11:31:34;7.7;;;1.8;;
36833;SDS011;48003;52.084;5.224;2022-08-01T11:33:48;8.71;;;1.9;;
36833;SDS011;48003;52.084;5.224;2022-08-01T11:35:35;9.1;;;2.0;;
36833;SDS011;48003;52.084;5.224;2022-08-01T11:37:24;7.5;;;1.9;;
36833;SDS011;48003;52.084;5.224;2022-08-01T11:39:13;9.71;;;1.9;;
36833;SDS011;48003;52.084;5.224;2022-08-01T11:41:10;7.9;;;1.8;;
36833;SDS011;48003;52.084;5.224;2022-08-01T11:43:16;5.9;;;1.7;;
36833;SDS011;48003;52.084;5.224;2022-08-01T11:45:19;6.3;;;1.5;;
36833;SDS011;48003;52.084;5.224;2022-08-01T11:49:21;5.11;;;1.4;;
36833;SDS011;48003;52.084;5.224;2022-08-01T11:51:15;5.9;;;1.5;;
36833;SDS011;48003;52.084;5.224;2022-08-01T11:53:02;3.5;;;1.3;;
36833;SDS011;48003;52.084;5.224;2022-08-01T11:54:52;4.2;;;1.2;;
36833;SDS011;48003;52.084;5.224;2022-08-01T11:56:41;4.41;;;1.2;;
36833;SDS011;48003;52.084;5.224;2022-08-01T11:58:28;4.61;;;1.11;;
36833;SDS011;48003;52.084;5.224;2022-08-01T12:00:15;2.5;;;0.8;;
36833;SDS011;48003;52.084;5.224;2022-08-01T12:02:04;1.9;;;0.8;;
36833;SDS011;48003;52.084;5.224;2022-08-01T12:04:00;1.9;;;0.8;;
36833;SDS011;48003;52.084;5.224;2022-08-01T12:07:33;5.6;;;1.4;;
36833;SDS011;48003;52.084;5.224;2022-08-01T12:09:21;3.7;;;1.3;;
36833;SDS011;48003;52.084;5.224;2022-08-01T12:11:08;4.8;;;1.4;;
36833;SDS011;48003;52.084;5.224;2022-08-01T12:12:55;3.8;;;1.0;;
36833;SDS011;48003;52.084;5.224;2022-08-01T12:14:52;3.6;;;1.0;;
36833;SDS011;48003;52.084;5.224;2022-08-01T12:16:40;4.3;;;1.2;;
36833;SDS011;48003;52.084;5.224;2022-08-01T12:18:37;4.7;;;1.9;;
36833;SDS011;48003;52.084;5.224;2022-08-01T12:22:16;3.2;;;1.0;;
36833;SDS011;48003;52.084;5.224;2022-08-01T12:24:02;4.1;;;1.2;;
36833;SDS011;48003;52.084;5.224;2022-08-01T12:25:50;4.41;;;1.0;;
36833;SDS011;48003;52.084;5.224;2022-08-01T12:27:39;3.3;;;1.2;;
36833;SDS011;48003;52.084;5.224;2022-08-01T12:29:34;4.2;;;1.2;;
36833;SDS011;48003;52.084;5.224;2022-08-01T12:31:30;3.6;;;1.11;;
36833;SDS011;48003;52.084;5.224;2022-08-01T12:33:17;3.6;;;1.11;;
36833;SDS011;48003;52.084;5.224;2022-08-01T12:36:56;4.41;;;1.11;;
36833;SDS011;48003;52.084;5.224;2022-08-01T12:38:44;2.4;;;0.8;;
36833;SDS011;48003;52.084;5.224;2022-08-01T12:40:40;2.8;;;1.0;;
36833;SDS011;48003;52.084;5.224;2022-08-01T12:42:29;3.8;;;1.0;;
36833;SDS011;48003;52.084;5.224;2022-08-01T12:44:15;4.0;;;1.11;;
36833;SDS011;48003;52.084;5.224;2022-08-01T12:46:02;2.1;;;0.9;;
36833;SDS011;48003;52.084;5.224;2022-08-01T12:47:49;2.7;;;1.0;;
36833;SDS011;48003;52.084;5.224;2022-08-01T12:51:27;3.2;;;1.0;;
36833;SDS011;48003;52.084;5.224;2022-08-01T12:53:14;2.21;;;0.9;;
36833;SDS011;48003;52.084;5.224;2022-08-01T12:55:04;2.7;;;0.9;;
36833;SDS011;48003;52.084;5.224;2022-08-01T12:56:57;3.6;;;1.0;;
36833;SDS011;48003;52.084;5.224;2022-08-01T12:58:43;3.0;;;1.11;;
36833;SDS011;48003;52.084;5.224;2022-08-01T13:00:29;4.0;;;1.11;;
36833;SDS011;48003;52.084;5.224;2022-08-01T13:04:04;2.6;;;0.9;;
36833;SDS011;48003;52.084;5.224;2022-08-01T13:05:50;2.7;;;1.0;;